Time;durP1;ratioP1;P1;durP2;ratioP2;P2;SDS_P1;SDS_P2;PMS_P1;PMS_P2;Temp;Humidity;BMP_temperature;BMP_pressure;BME280_temperature;BME280_humidity;BME280_pressure;Samples;Min_cycle;Max_cycle;Signal;HPM_P1;HPM_P2
2024/03/15 00:00:53;;;;;;;0.70;0.60;;;13.30;83.10;;;;;;5133450;28;20390;-73
2024/03/15 00:03:19;;;;;;;1.17;0.80;;;13.30;83.00;;;;;;5133512;27;20039;-72
2024/03/15 00:05:45;;;;;;;1.30;0.90;;;13.30;83.00;;;;;;5133938;27;20043;-73
2024/03/15 00:08:13;;;;;;;1.27;0.80;;;13.20;83.00;;;;;;5133174;27;20038;-72
2024/03/15 00:10:39;;;;;;;0.85;0.80;;;13.20;83.10;;;;;;5115410;28;20045;-72
2024/03/15 00:13:05;;;;;;;1.10;0.80;;;13.20;83.00;;;;;;5097823;27;20401;-74
2024/03/15 00:15:31;;;;;;;1.10;0.90;;;13.20;83.10;;;;;;5115114;28;20038;-73
2024/03/15 00:17:58;;;;;;;1.17;0.85;;;13.20;83.00;;;;;;5133136;27;20039;-73
2024/03/15 00:20:24;;;;;;;1.27;1.10;;;13.20;82.90;;;;;;5132977;27;20136;-73
2024/03/15 00:22:50;;;;;;;1.48;0.93;;;13.20;82.90;;;;;;5132110;27;20064;-73
2024/03/15 00:25:18;;;;;;;0.70;0.70;;;13.20;83.00;;;;;;5114499;28;20077;-72
2024/03/15 00:27:44;;;;;;;1.45;0.98;;;13.10;83.00;;;;;;5115063;28;20135;-73
2024/03/15 00:30:10;;;;;;;0.98;0.90;;;13.10;83.10;;;;;;5133011;27;20050;-73
2024/03/15 00:32:35;;;;;;;0.77;0.68;;;13.10;83.10;;;;;;5132924;27;20039;-72
2024/03/15 00:35:01;;;;;;;0.93;0.88;;;13.10;83.20;;;;;;5114999;28;20040;-72
2024/03/15 00:37:27;;;;;;;1.00;0.80;;;13.10;83.30;;;;;;5114432;28;20047;-72
2024/03/15 00:39:53;;;;;;;1.17;0.90;;;13.00;83.30;;;;;;5114371;28;20510;-73
2024/03/15 00:42:18;;;;;;;1.45;0.88;;;13.00;83.30;;;;;;5132885;27;20443;-73
2024/03/15 00:44:44;;;;;;;1.23;0.85;;;13.00;83.40;;;;;;5132440;27;20612;-73
2024/03/15 00:47:09;;;;;;;0.85;0.80;;;13.00;83.40;;;;;;5132520;27;20039;-74
2024/03/15 00:49:35;;;;;;;1.10;0.90;;;13.00;83.40;;;;;;5097224;27;20047;-73
2024/03/15 00:52:01;;;;;;;1.10;0.80;;;13.10;83.40;;;;;;5132804;27;20406;-73
2024/03/15 00:54:27;;;;;;;1.58;1.02;;;13.00;83.40;;;;;;5132618;27;20035;-73
2024/03/15 00:56:53;;;;;;;1.40;1.00;;;13.00;83.30;;;;;;5114457;27;20038;-73
2024/03/15 00:59:20;;;;;;;1.15;0.80;;;13.10;83.40;;;;;;5114183;28;20043;-73
2024/03/15 01:01:46;;;;;;;1.02;0.77;;;13.00;83.30;;;;;;5068761;28;20044;-73
2024/03/15 01:04:13;;;;;;;1.13;0.88;;;13.00;83.30;;;;;;5069072;28;20047;-73
2024/03/15 01:06:38;;;;;;;1.10;1.00;;;13.00;83.40;;;;;;5035803;28;20068;-72
2024/03/15 01:09:04;;;;;;;1.40;1.10;;;13.00;83.40;;;;;;5035871;28;20409;-73
2024/03/15 01:11:30;;;;;;;1.10;1.00;;;13.10;83.40;;;;;;5052671;28;20132;-73
2024/03/15 01:13:58;;;;;;;1.80;1.02;;;13.10;83.40;;;;;;5052239;28;20449;-73
2024/03/15 01:16:25;;;;;;;1.83;1.05;;;13.10;83.40;;;;;;5068958;28;20152;-72
2024/03/15 01:18:54;;;;;;;1.92;0.88;;;13.10;83.60;;;;;;5035935;28;20043;-73
2024/03/15 01:21:21;;;;;;;1.23;1.02;;;13.10;83.30;;;;;;5052883;28;20051;-73
2024/03/15 01:23:48;;;;;;;1.42;1.00;;;13.10;83.30;;;;;;5035750;28;20082;-73
2024/03/15 01:26:15;;;;;;;1.65;0.80;;;13.20;83.40;;;;;;5035798;28;20078;-73
2024/03/15 01:28:41;;;;;;;2.30;1.00;;;13.10;83.20;;;;;;5069145;28;20052;-72
2024/03/15 01:31:07;;;;;;;1.17;0.90;;;13.10;83.30;;;;;;5051880;28;20159;-73
2024/03/15 01:33:33;;;;;;;2.30;1.30;;;13.10;83.20;;;;;;5121624;27;20054;-73
2024/03/15 01:35:58;;;;;;;1.67;0.98;;;13.10;83.30;;;;;;5116957;28;20439;-73
2024/03/15 01:38:24;;;;;;;2.13;1.10;;;13.20;83.40;;;;;;5117015;28;20047;-72
2024/03/15 01:40:50;;;;;;;1.45;1.00;;;13.20;83.40;;;;;;5100109;28;20043;-73
2024/03/15 01:43:16;;;;;;;1.73;1.00;;;13.10;83.30;;;;;;5116955;28;20504;-73
2024/03/15 01:45:42;;;;;;;1.70;1.00;;;13.20;83.40;;;;;;5116921;28;20046;-73
2024/03/15 01:48:09;;;;;;;1.52;0.90;;;13.20;83.40;;;;;;5099813;28;20371;-72
2024/03/15 01:50:36;;;;;;;0.88;0.85;;;13.20;83.40;;;;;;5116820;28;20526;-73
2024/03/15 01:53:04;;;;;;;1.30;1.10;;;13.10;83.40;;;;;;5135668;27;20555;-72
2024/03/15 01:55:32;;;;;;;1.42;1.08;;;13.10;83.50;;;;;;5135159;27;20043;-72
2024/03/15 01:57:59;;;;;;;1.42;1.00;;;13.10;83.60;;;;;;5116573;27;20096;-73
2024/03/15 02:00:25;;;;;;;1.00;0.88;;;13.10;83.60;;;;;;5134915;27;20043;-72
2024/03/15 02:02:52;;;;;;;1.05;0.93;;;13.10;83.50;;;;;;5135292;27;20043;-73
2024/03/15 02:05:17;;;;;;;1.30;1.00;;;13.10;83.60;;;;;;5117158;28;20097;-72
2024/03/15 02:07:43;;;;;;;1.63;1.13;;;13.10;83.60;;;;;;5134761;27;20031;-73
2024/03/15 02:10:16;;;;;;;1.85;1.00;;;13.10;83.60;;;;;;5099680;28;20039;-73
2024/03/15 02:12:41;;;;;;;1.73;1.08;;;13.20;83.60;;;;;;5135506;27;20046;-72
2024/03/15 02:15:08;;;;;;;1.50;1.10;;;13.30;83.70;;;;;;5134873;27;20039;-72
2024/03/15 02:17:36;;;;;;;1.77;1.15;;;13.10;83.60;;;;;;5116599;28;20074;-73
2024/03/15 02:20:06;;;;;;;1.10;1.00;;;13.20;83.60;;;;;;5116385;28;20035;-72
2024/03/15 02:22:32;;;;;;;1.92;1.00;;;13.10;83.60;;;;;;5133246;28;20035;-73
2024/03/15 02:24:57;;;;;;;1.27;1.10;;;13.20;83.60;;;;;;5134749;27;20050;-73
2024/03/15 02:27:24;;;;;;;1.30;0.85;;;13.10;83.70;;;;;;5116231;28;20398;-73
2024/03/15 02:29:51;;;;;;;1.38;1.10;;;13.10;83.70;;;;;;5116808;28;20121;-73
2024/03/15 02:32:18;;;;;;;1.73;0.90;;;13.10;83.70;;;;;;5116679;27;20125;-73
2024/03/15 02:34:46;;;;;;;2.05;1.05;;;13.10;83.70;;;;;;5134537;27;20031;-72
2024/03/15 02:37:12;;;;;;;1.50;0.98;;;13.20;83.90;;;;;;5071234;28;20041;-73
2024/03/15 02:39:38;;;;;;;1.23;1.02;;;13.10;83.80;;;;;;5071235;28;20139;-73
2024/03/15 02:42:03;;;;;;;2.33;1.20;;;13.10;83.80;;;;;;5054240;28;20036;-72
2024/03/15 02:44:30;;;;;;;1.30;1.13;;;13.20;83.80;;;;;;5054780;28;20037;-73
2024/03/15 02:46:56;;;;;;;1.80;1.30;;;13.10;83.80;;;;;;5053360;28;20522;-73
2024/03/15 02:49:22;;;;;;;1.63;1.02;;;13.20;83.90;;;;;;5054486;28;20131;-73
2024/03/15 02:51:48;;;;;;;1.88;1.17;;;13.20;83.80;;;;;;5054439;28;20072;-73
2024/03/15 02:54:17;;;;;;;1.17;0.95;;;13.20;83.80;;;;;;5070791;28;20075;-73
2024/03/15 02:56:43;;;;;;;1.13;0.95;;;13.20;83.80;;;;;;5070882;28;20048;-73
2024/03/15 02:59:09;;;;;;;1.88;1.20;;;13.10;83.80;;;;;;5071146;28;20047;-73
2024/03/15 03:01:35;;;;;;;1.27;0.95;;;13.10;83.90;;;;;;5037554;28;20519;-73
2024/03/15 03:04:01;;;;;;;1.33;1.00;;;13.10;84.00;;;;;;5054126;28;20061;-72
2024/03/15 03:06:31;;;;;;;2.00;1.10;;;13.00;84.00;;;;;;5053928;28;20048;-73
2024/03/15 03:08:57;;;;;;;1.27;0.93;;;13.00;84.10;;;;;;5123859;27;20039;-73
2024/03/15 03:11:22;;;;;;;1.70;1.05;;;13.00;84.20;;;;;;5133688;27;20076;-73
2024/03/15 03:13:48;;;;;;;0.80;0.80;;;12.90;84.30;;;;;;5133795;27;20047;-72
2024/03/15 03:16:20;;;;;;;2.08;1.10;;;13.00;84.30;;;;;;5134287;27;20042;-73
2024/03/15 03:18:46;;;;;;;1.83;1.17;;;12.90;84.40;;;;;;5115324;28;20043;-72
2024/03/15 03:21:12;;;;;;;1.42;0.90;;;12.90;84.40;;;;;;5133903;27;20092;-72
2024/03/15 03:23:38;;;;;;;1.23;0.90;;;13.00;84.40;;;;;;5133977;28;20035;-73
2024/03/15 03:26:05;;;;;;;1.13;0.93;;;12.90;84.40;;;;;;5115444;27;20063;-72
2024/03/15 03:28:31;;;;;;;0.98;0.90;;;12.90;84.40;;;;;;5115354;28;20411;-72
2024/03/15 03:30:56;;;;;;;1.50;1.00;;;12.90;84.50;;;;;;5133481;27;20135;-72
2024/03/15 03:33:22;;;;;;;1.73;1.00;;;12.90;84.50;;;;;;5134218;27;20087;-72
2024/03/15 03:35:48;;;;;;;1.48;1.05;;;12.90;84.60;;;;;;5133387;27;20038;-73
2024/03/15 03:38:14;;;;;;;1.20;1.00;;;12.90;84.60;;;;;;5133343;27;20131;-73
2024/03/15 03:40:40;;;;;;;1.25;0.82;;;12.90;84.60;;;;;;5098116;28;20039;-72
2024/03/15 03:43:05;;;;;;;1.83;1.23;;;12.90;84.70;;;;;;5133332;27;20402;-73
2024/03/15 03:45:31;;;;;;;1.85;1.10;;;12.90;85.30;;;;;;5133373;27;20042;-73
2024/03/15 03:47:57;;;;;;;1.38;1.02;;;12.80;84.70;;;;;;5115086;28;20043;-73
2024/03/15 03:50:24;;;;;;;1.15;1.00;;;12.90;84.70;;;;;;5133405;27;20043;-72
2024/03/15 03:52:52;;;;;;;1.67;1.10;;;12.90;84.70;;;;;;5133255;28;20043;-73
2024/03/15 03:55:18;;;;;;;1.40;1.05;;;12.90;84.70;;;;;;5114921;27;20126;-73
2024/03/15 03:57:45;;;;;;;1.52;1.02;;;12.90;84.70;;;;;;5113597;28;20485;-72
2024/03/15 04:00:14;;;;;;;2.03;1.00;;;12.80;84.70;;;;;;5133339;27;20035;-72
2024/03/15 04:02:45;;;;;;;2.17;0.90;;;12.90;84.90;;;;;;5115312;28;20035;-73
2024/03/15 04:05:13;;;;;;;;;;;12.80;85.00;;;;;;5131827;28;20042;-73
2024/03/15 04:07:38;;;;;;;1.17;0.90;;;12.70;85.00;;;;;;5114995;28;19912;-73
2024/03/15 04:10:04;;;;;;;1.88;0.80;;;12.60;85.20;;;;;;5133565;27;20444;-73
2024/03/15 04:12:30;;;;;;;1.50;0.93;;;12.60;85.50;;;;;;5132974;27;20054;-73
2024/03/15 04:14:56;;;;;;;1.60;0.90;;;12.50;85.70;;;;;;5115045;28;20401;-73
2024/03/15 04:17:23;;;;;;;1.08;0.80;;;12.40;85.90;;;;;;5132919;27;20050;-73
2024/03/15 04:19:49;;;;;;;1.23;0.90;;;12.40;86.20;;;;;;5133193;27;20047;-73
2024/03/15 04:22:21;;;;;;;1.10;1.00;;;12.30;86.40;;;;;;5133323;27;20035;-73
2024/03/15 04:24:49;;;;;;;1.30;0.93;;;12.30;86.60;;;;;;5053288;28;20043;-73
2024/03/15 04:27:16;;;;;;;1.13;0.80;;;12.30;86.80;;;;;;5069651;28;20411;-73
2024/03/15 04:29:42;;;;;;;1.92;0.80;;;12.20;86.80;;;;;;5036691;28;20046;-73
2024/03/15 04:32:09;;;;;;;1.45;0.77;;;12.20;86.90;;;;;;5069878;28;20083;-73
2024/03/15 04:34:37;;;;;;;1.52;0.90;;;12.20;87.10;;;;;;5053219;28;20072;-73
2024/03/15 04:37:04;;;;;;;0.70;0.68;;;12.20;87.30;;;;;;5036231;28;20036;-73
2024/03/15 04:39:31;;;;;;;1.45;0.75;;;12.20;87.40;;;;;;5052624;28;20033;-74
2024/03/15 04:41:57;;;;;;;0.88;0.55;;;12.10;87.50;;;;;;5069488;28;20147;-73
2024/03/15 04:44:22;;;;;;;0.88;0.70;;;12.10;87.60;;;;;;5052659;28;20123;-74
2024/03/15 04:46:48;;;;;;;0.40;0.40;;;12.10;87.70;;;;;;5069443;28;20511;-73
2024/03/15 04:49:15;;;;;;;0.70;0.68;;;12.10;87.80;;;;;;5052350;28;20055;-73
2024/03/15 04:51:40;;;;;;;0.47;0.47;;;12.10;87.90;;;;;;5069340;28;20059;-75
2024/03/15 04:54:08;;;;;;;0.95;0.68;;;12.10;88.00;;;;;;5052575;28;20499;-74
2024/03/15 04:56:34;;;;;;;0.60;0.60;;;12.10;88.00;;;;;;5105592;28;20035;-73
2024/03/15 04:59:00;;;;;;;0.68;0.65;;;12.00;88.00;;;;;;5114140;28;20479;-74
2024/03/15 05:01:26;;;;;;;0.60;0.60;;;12.00;88.10;;;;;;5114169;28;20088;-73
2024/03/15 05:03:52;;;;;;;0.73;0.57;;;12.00;88.20;;;;;;5133151;27;20043;-73
2024/03/15 05:06:18;;;;;;;1.05;0.85;;;12.00;88.30;;;;;;5132549;27;20537;-73
2024/03/15 05:08:43;;;;;;;0.75;0.70;;;12.00;88.30;;;;;;5132848;27;20126;-74
2024/03/15 05:11:10;;;;;;;1.52;0.80;;;12.10;88.30;;;;;;5101142;28;20035;-74
2024/03/15 05:13:36;;;;;;;1.48;0.75;;;12.00;88.30;;;;;;5136385;27;20070;-74
2024/03/15 05:16:02;;;;;;;2.65;0.82;;;12.00;88.30;;;;;;5136605;27;20043;-73
2024/03/15 05:18:29;;;;;;;1.58;1.00;;;12.00;88.30;;;;;;5135919;27;20067;-74
2024/03/15 05:20:55;;;;;;;1.80;0.80;;;12.00;88.30;;;;;;5135864;27;20096;-74
2024/03/15 05:23:21;;;;;;;1.20;0.75;;;12.00;88.30;;;;;;5136210;27;20043;-73
2024/03/15 05:25:49;;;;;;;1.48;0.82;;;12.10;88.30;;;;;;5117910;28;20546;-74
2024/03/15 05:28:16;;;;;;;1.60;1.02;;;12.10;88.30;;;;;;5100835;28;20043;-74
2024/03/15 05:30:43;;;;;;;1.35;0.80;;;12.10;88.10;;;;;;5135858;27;20054;-73
2024/03/15 05:33:09;;;;;;;0.80;0.77;;;12.10;88.10;;;;;;5135780;27;20050;-74
2024/03/15 05:35:34;;;;;;;2.47;1.00;;;12.20;88.10;;;;;;5117826;28;20039;-73
2024/03/15 05:38:00;;;;;;;1.50;1.10;;;12.20;88.10;;;;;;5135602;27;20063;-73
2024/03/15 05:40:27;;;;;;;2.10;1.35;;;12.20;88.10;;;;;;5135544;27;20034;-73
2024/03/15 05:42:53;;;;;;;1.05;0.90;;;12.20;88.10;;;;;;5083416;28;20555;-73
2024/03/15 05:45:21;;;;;;;1.25;1.00;;;12.20;88.00;;;;;;5135389;27;20039;-74
2024/03/15 05:47:46;;;;;;;1.13;0.88;;;12.20;88.00;;;;;;5117459;27;20107;-73
2024/03/15 05:50:12;;;;;;;0.80;0.70;;;12.20;88.00;;;;;;5135989;27;20462;-73
2024/03/15 05:52:39;;;;;;;1.63;0.80;;;12.20;87.90;;;;;;5117157;28;20097;-73
2024/03/15 05:55:05;;;;;;;1.05;0.85;;;12.30;88.00;;;;;;5117135;27;20039;-73
2024/03/15 05:57:30;;;;;;;1.02;0.90;;;12.20;87.90;;;;;;5100315;28;20054;-73
2024/03/15 05:59:56;;;;;;;1.85;1.10;;;12.30;88.00;;;;;;5117093;28;20047;-73
2024/03/15 06:02:22;;;;;;;1.45;0.77;;;12.20;88.00;;;;;;5135645;27;20035;-73
2024/03/15 06:04:51;;;;;;;1.65;1.00;;;12.20;88.00;;;;;;5135776;27;20042;-73
2024/03/15 06:07:16;;;;;;;1.15;0.90;;;12.30;88.10;;;;;;5116708;28;20478;-73
2024/03/15 06:09:42;;;;;;;1.38;1.00;;;12.30;88.10;;;;;;5117131;28;20133;-73
2024/03/15 06:12:08;;;;;;;1.00;0.90;;;12.30;88.10;;;;;;5135248;27;20047;-73
2024/03/15 06:14:34;;;;;;;1.90;1.10;;;12.30;87.90;;;;;;5135199;27;20451;-73
2024/03/15 06:17:00;;;;;;;1.25;0.95;;;12.40;87.90;;;;;;5134845;27;20118;-73
2024/03/15 06:19:26;;;;;;;1.48;1.17;;;12.50;87.90;;;;;;5099659;28;20118;-73
2024/03/15 06:21:53;;;;;;;1.40;0.90;;;12.40;87.90;;;;;;5115464;28;20501;-73
2024/03/15 06:24:21;;;;;;;1.30;0.80;;;12.40;87.80;;;;;;5099826;28;20441;-73
2024/03/15 06:26:48;;;;;;;1.05;0.90;;;12.40;87.90;;;;;;5116323;27;20045;-73
2024/03/15 06:29:18;;;;;;;2.15;0.90;;;12.50;87.90;;;;;;5082514;27;20039;-73
2024/03/15 06:31:44;;;;;;;1.42;1.05;;;12.40;87.80;;;;;;5116432;28;20043;-73
2024/03/15 06:34:10;;;;;;;1.13;0.82;;;12.50;87.80;;;;;;5116514;27;20061;-73
2024/03/15 06:36:42;;;;;;;1.65;1.05;;;12.50;87.80;;;;;;5116730;28;20043;-73
2024/03/15 06:39:30;;;;;;;1.40;1.10;;;12.60;87.70;;;;;;5116458;28;20050;-73
2024/03/15 06:41:55;;;;;;;1.40;0.98;;;12.60;87.70;;;;;;5134428;27;20505;-73
2024/03/15 06:44:25;;;;;;;1.20;0.80;;;12.60;87.70;;;;;;5116083;28;20039;-73
2024/03/15 06:52:38;;;;;;;2.08;0.80;;;12.60;87.80;;;;;;5118456;28;20447;-73
2024/03/15 06:55:02;;;;;;;1.33;0.77;;;12.60;87.80;;;;;;5118941;28;20043;-73
2024/03/15 06:57:28;;;;;;;1.10;1.00;;;12.60;87.80;;;;;;5134694;27;20122;-73
2024/03/15 06:59:55;;;;;;;0.98;0.80;;;12.60;87.80;;;;;;5134438;27;20050;-73
2024/03/15 07:02:21;;;;;;;1.65;1.00;;;12.60;87.80;;;;;;5115697;28;20039;-73
2024/03/15 07:04:50;;;;;;;0.85;0.75;;;12.70;87.90;;;;;;5116048;28;20066;-73
2024/03/15 07:07:18;;;;;;;1.58;1.02;;;12.60;87.80;;;;;;5134340;27;20043;-72
2024/03/15 07:09:43;;;;;;;0.82;0.80;;;12.70;87.90;;;;;;5115935;28;20039;-72
2024/03/15 07:12:09;;;;;;;1.20;0.90;;;12.70;88.00;;;;;;5134274;27;20541;-73
2024/03/15 07:14:36;;;;;;;1.30;1.00;;;12.70;87.90;;;;;;5134702;27;20478;-73
2024/03/15 07:17:04;;;;;;;2.25;1.05;;;12.90;88.00;;;;;;5115724;27;20031;-73
2024/03/15 07:19:32;;;;;;;1.38;0.98;;;12.80;87.90;;;;;;5134116;27;20043;-73
2024/03/15 07:21:58;;;;;;;1.55;0.90;;;12.90;87.90;;;;;;5116081;28;20125;-74
2024/03/15 07:24:23;;;;;;;2.75;1.00;;;13.00;87.70;;;;;;5115975;27;20089;-73
2024/03/15 07:26:49;;;;;;;1.15;0.80;;;13.00;87.70;;;;;;5134157;27;20506;-73
2024/03/15 07:29:15;;;;;;;1.70;1.10;;;13.00;87.60;;;;;;5115602;28;20372;-74
2024/03/15 07:31:41;;;;;;;1.88;1.00;;;13.10;87.50;;;;;;5098558;28;20050;-73
2024/03/15 07:34:07;;;;;;;1.45;1.00;;;13.00;87.40;;;;;;5115408;27;20035;-73
2024/03/15 07:36:33;;;;;;;1.30;1.17;;;13.10;87.40;;;;;;5134319;27;20351;-74
2024/03/15 07:38:59;;;;;;;1.48;0.93;;;13.10;87.40;;;;;;5098542;28;20039;-73
2024/03/15 07:41:28;;;;;;;1.35;1.02;;;13.20;87.50;;;;;;5115114;28;20477;-74
2024/03/15 07:43:54;;;;;;;1.55;1.20;;;13.30;87.40;;;;;;5116110;28;20172;-74
2024/03/15 07:46:21;;;;;;;2.03;1.10;;;13.40;87.20;;;;;;5115688;28;20130;-73
2024/03/15 07:48:47;;;;;;;1.33;1.20;;;13.40;87.10;;;;;;5115470;28;20123;-73
2024/03/15 07:51:13;;;;;;;2.25;1.13;;;13.40;87.10;;;;;;5133592;28;20128;-74
2024/03/15 07:53:40;;;;;;;1.60;1.20;;;13.30;87.10;;;;;;5133911;27;20035;-74
2024/03/15 07:56:09;;;;;;;1.67;1.15;;;13.40;87.20;;;;;;5098567;28;20039;-74
2024/03/15 07:58:36;;;;;;;1.20;1.00;;;13.30;87.20;;;;;;5134030;27;20206;-72
2024/03/15 08:01:02;;;;;;;1.50;1.00;;;13.40;88.00;;;;;;5133704;27;20036;-72
2024/03/15 08:03:28;;;;;;;1.95;1.20;;;13.40;87.40;;;;;;5115136;27;20562;-72
2024/03/15 08:06:00;;;;;;;1.20;1.10;;;13.40;87.30;;;;;;5133978;28;20126;-71
2024/03/15 08:08:26;;;;;;;1.17;1.00;;;13.50;87.20;;;;;;5098866;27;20447;-72
2024/03/15 08:10:52;;;;;;;1.67;1.15;;;13.60;87.20;;;;;;5114552;27;20045;-72
2024/03/15 08:13:22;;;;;;;1.95;1.20;;;13.60;87.00;;;;;;5133842;27;20386;-72
2024/03/15 08:15:56;;;;;;;1.05;0.90;;;13.60;87.00;;;;;;5133056;27;20088;-73
2024/03/15 08:18:22;;;;;;;1.25;0.90;;;13.60;86.90;;;;;;5133134;27;20088;-72
2024/03/15 08:20:47;;;;;;;0.95;0.90;;;13.60;86.90;;;;;;5114748;27;20063;-73
2024/03/15 08:23:13;;;;;;;1.40;1.00;;;13.60;87.00;;;;;;5114671;28;20086;-73
2024/03/15 08:25:41;;;;;;;1.65;1.00;;;13.60;87.00;;;;;;5133565;27;20062;-72
2024/03/15 08:28:09;;;;;;;1.27;0.90;;;13.70;87.00;;;;;;5115386;28;20043;-73
2024/03/15 08:30:37;;;;;;;0.95;0.80;;;13.70;86.90;;;;;;5114449;28;20074;-72
2024/03/15 08:33:03;;;;;;;1.58;0.95;;;13.70;86.80;;;;;;5114750;27;20079;-73
2024/03/15 08:35:29;;;;;;;2.85;1.23;;;13.90;86.80;;;;;;5132962;27;20114;-72
2024/03/15 08:37:57;;;;;;;2.42;1.20;;;13.90;86.80;;;;;;5133018;27;20035;-72
2024/03/15 08:40:22;;;;;;;2.28;0.98;;;13.80;86.60;;;;;;5097835;28;20394;-72
2024/03/15 08:42:48;;;;;;;1.23;0.85;;;13.90;86.60;;;;;;5133339;27;20051;-72
2024/03/15 08:45:14;;;;;;;1.67;1.05;;;13.90;86.50;;;;;;5100359;28;20134;-72
2024/03/15 08:47:40;;;;;;;1.75;1.10;;;13.90;86.50;;;;;;5099842;28;20046;-72
2024/03/15 08:50:11;;;;;;;1.35;1.10;;;13.90;86.60;;;;;;5118091;28;20039;-72
2024/03/15 08:52:39;;;;;;;1.33;1.05;;;13.80;86.60;;;;;;5099850;27;20097;-72
2024/03/15 08:55:09;;;;;;;1.27;1.00;;;13.80;86.80;;;;;;5097993;28;20088;-73
2024/03/15 08:57:45;;;;;;;1.13;0.85;;;13.70;86.90;;;;;;5098842;28;20080;-73
2024/03/15 09:00:12;;;;;;;1.42;0.93;;;13.80;87.10;;;;;;5119033;28;20039;-73
2024/03/15 09:02:38;;;;;;;1.38;1.10;;;13.70;87.10;;;;;;5136272;27;20035;-73
2024/03/15 09:05:10;;;;;;;1.00;0.82;;;13.60;87.20;;;;;;5117900;27;20092;-72
2024/03/15 09:07:38;;;;;;;1.27;0.80;;;13.60;87.40;;;;;;5136523;27;20073;-72
2024/03/15 09:10:13;;;;;;;1.80;1.20;;;13.60;87.60;;;;;;5136475;27;20131;-72
2024/03/15 09:12:40;;;;;;;0.95;0.85;;;13.50;87.70;;;;;;5101911;28;20071;-73
2024/03/15 09:15:08;;;;;;;2.55;0.80;;;13.50;87.80;;;;;;5117475;28;20044;-73
2024/03/15 09:17:34;;;;;;;1.10;0.95;;;13.50;88.00;;;;;;5100981;28;20390;-72
2024/03/15 09:20:09;;;;;;;1.65;1.20;;;13.40;88.00;;;;;;5100349;28;20375;-72
2024/03/15 09:22:35;;;;;;;2.15;0.93;;;13.40;88.10;;;;;;5135898;27;20047;-72
2024/03/15 09:25:01;;;;;;;1.75;1.00;;;13.40;88.30;;;;;;5117611;28;20409;-72
2024/03/15 09:27:27;;;;;;;1.70;1.13;;;13.50;88.30;;;;;;5117789;28;20035;-72
2024/03/15 09:29:53;;;;;;;1.45;1.00;;;13.60;88.20;;;;;;5117751;27;20493;-72
2024/03/15 09:32:21;;;;;;;1.50;1.10;;;13.50;88.10;;;;;;5117464;28;20133;-73
2024/03/15 09:34:49;;;;;;;1.23;0.90;;;13.50;87.90;;;;;;5136326;27;20039;-73
2024/03/15 09:37:14;;;;;;;3.08;1.00;;;13.60;87.90;;;;;;5135715;27;20031;-72
2024/03/15 09:39:42;;;;;;;1.35;0.90;;;13.60;87.80;;;;;;5136295;27;20488;-72
2024/03/15 09:42:17;;;;;;;1.15;0.90;;;13.60;87.70;;;;;;5136143;27;20058;-73
2024/03/15 09:44:48;;;;;;;1.80;1.10;;;13.70;87.80;;;;;;5135787;27;20047;-72
2024/03/15 09:47:14;;;;;;;1.80;1.17;;;13.80;87.70;;;;;;5135615;28;20490;-73
2024/03/15 09:49:42;;;;;;;1.20;0.98;;;13.90;87.40;;;;;;5117776;28;20080;-75
2024/03/15 09:52:11;;;;;;;1.52;0.80;;;14.00;87.00;;;;;;5117518;28;20487;-74
2024/03/15 09:54:37;;;;;;;1.05;0.80;;;14.20;86.70;;;;;;5117435;27;20039;-73
2024/03/15 09:57:06;;;;;;;0.95;0.80;;;14.20;86.60;;;;;;5135210;27;20107;-73
2024/03/15 09:59:35;;;;;;;1.40;0.73;;;14.30;86.60;;;;;;5117390;28;20035;-72
2024/03/15 10:02:02;;;;;;;1.35;0.73;;;14.40;86.40;;;;;;5135690;27;20045;-73
2024/03/15 10:04:29;;;;;;;1.08;0.70;;;14.50;86.30;;;;;;5135326;27;20035;-73
2024/03/15 10:06:55;;;;;;;2.72;0.95;;;14.50;86.00;;;;;;5116894;28;20447;-72
2024/03/15 10:09:23;;;;;;;2.78;0.60;;;14.60;85.90;;;;;;5117079;28;20031;-72
2024/03/15 10:11:49;;;;;;;3.35;0.85;;;14.70;85.80;;;;;;5135144;27;20513;-73
2024/03/15 10:14:15;;;;;;;2.08;0.93;;;14.70;85.60;;;;;;5116707;28;20039;-72
2024/03/15 10:16:40;;;;;;;1.88;0.90;;;14.90;85.40;;;;;;5134968;27;20129;-72
2024/03/15 10:19:11;;;;;;;2.28;1.00;;;15.00;85.70;;;;;;5134700;27;20039;-73
2024/03/15 10:21:38;;;;;;;1.52;0.88;;;15.10;84.80;;;;;;5116079;28;20043;-72
2024/03/15 10:24:04;;;;;;;3.83;0.90;;;15.20;84.70;;;;;;5134860;27;20031;-72
2024/03/15 10:26:30;;;;;;;2.22;0.90;;;15.40;84.40;;;;;;5116408;27;20054;-71
2024/03/15 10:28:55;;;;;;;2.47;0.95;;;15.50;84.10;;;;;;5099527;28;20043;-72
2024/03/15 10:31:21;;;;;;;2.28;0.90;;;15.70;83.80;;;;;;5135112;28;20041;-72
2024/03/15 10:33:47;;;;;;;2.58;1.10;;;15.70;83.50;;;;;;5135047;27;20379;-72
2024/03/15 10:36:14;;;;;;;1.35;1.00;;;15.80;83.80;;;;;;5135127;27;20060;-72
2024/03/15 10:38:40;;;;;;;1.25;0.93;;;15.70;83.40;;;;;;5116609;28;20554;-74
2024/03/15 10:41:07;;;;;;;1.98;1.10;;;15.70;83.40;;;;;;5116343;27;20071;-72
2024/03/15 10:43:32;;;;;;;2.72;1.10;;;15.80;83.60;;;;;;5116321;28;20145;-72
2024/03/15 10:45:58;;;;;;;1.73;0.93;;;15.70;83.60;;;;;;5134684;27;20453;-72
2024/03/15 10:48:26;;;;;;;1.85;1.00;;;15.70;83.40;;;;;;5134747;27;20035;-72
2024/03/15 10:50:55;;;;;;;2.58;1.23;;;15.70;83.40;;;;;;5134817;27;20039;-73
2024/03/15 10:53:24;;;;;;;3.38;1.38;;;15.70;83.30;;;;;;5134484;27;20046;-72
2024/03/15 10:55:51;;;;;;;3.17;1.20;;;15.80;83.50;;;;;;5134477;27;20103;-72
2024/03/15 10:58:17;;;;;;;2.47;1.17;;;15.90;83.20;;;;;;5134548;27;21416;-73
2024/03/15 11:00:45;;;;;;;1.38;1.00;;;15.80;83.00;;;;;;5134688;27;20083;-72
2024/03/15 11:03:15;;;;;;;2.03;1.20;;;15.80;83.10;;;;;;5134779;27;20077;-72
2024/03/15 11:05:41;;;;;;;2.27;1.20;;;15.80;83.20;;;;;;5132473;28;20054;-72
2024/03/15 11:08:12;;;;;;;1.55;1.00;;;15.80;83.20;;;;;;5115048;28;20395;-72
2024/03/15 11:10:38;;;;;;;1.00;0.90;;;15.80;83.20;;;;;;5096806;28;20547;-71
2024/03/15 11:13:05;;;;;;;2.10;1.00;;;15.70;83.40;;;;;;5133937;28;20134;-73
2024/03/15 11:15:34;;;;;;;2.28;1.10;;;15.80;83.50;;;;;;5134027;28;20047;-73
2024/03/15 11:18:08;;;;;;;2.08;1.10;;;15.80;83.40;;;;;;5134067;28;20062;-72
2024/03/15 11:20:52;;;;;;;1.55;0.98;;;15.70;83.30;;;;;;5134358;28;20035;-73
2024/03/15 11:23:21;;;;;;;2.70;1.10;;;15.70;83.40;;;;;;5115332;28;20139;-72
2024/03/15 11:26:02;;;;;;;1.58;0.98;;;15.60;83.40;;;;;;5133759;28;20039;-72
2024/03/15 11:28:31;;;;;;;2.22;1.17;;;15.60;83.70;;;;;;5114031;28;20043;-72
2024/03/15 11:30:57;;;;;;;1.27;0.93;;;15.60;83.90;;;;;;5133977;28;20054;-71
2024/03/15 11:33:25;;;;;;;2.95;1.10;;;15.50;83.80;;;;;;5114890;28;20101;-71
2024/03/15 11:35:52;;;;;;;1.42;1.00;;;15.50;83.80;;;;;;5133456;28;20042;-70
2024/03/15 11:38:19;;;;;;;0.93;0.70;;;15.50;83.70;;;;;;5133644;28;20066;-72
2024/03/15 11:40:45;;;;;;;1.75;0.95;;;15.50;83.70;;;;;;5133264;28;20054;-72
2024/03/15 11:43:13;;;;;;;2.40;1.27;;;15.50;83.70;;;;;;5133661;28;20063;-72
2024/03/15 11:45:41;;;;;;;1.48;1.00;;;15.40;83.80;;;;;;5098676;28;20039;-72
2024/03/15 11:48:23;;;;;;;1.77;1.00;;;15.30;84.00;;;;;;5114541;28;20509;-72
2024/03/15 11:50:50;;;;;;;1.95;0.93;;;15.20;85.10;;;;;;5114182;28;20406;-72
2024/03/15 11:53:18;;;;;;;1.50;1.00;;;15.00;84.80;;;;;;5114271;28;20068;-71
2024/03/15 11:55:45;;;;;;;1.80;1.00;;;14.80;85.10;;;;;;5114471;27;20039;-72
2024/03/15 11:58:16;;;;;;;2.10;1.10;;;14.70;85.60;;;;;;5133602;27;20034;-72
2024/03/15 12:00:44;;;;;;;2.67;1.50;;;14.50;85.90;;;;;;5115851;27;20083;-72
2024/03/15 12:03:11;;;;;;;2.20;1.20;;;14.30;86.20;;;;;;5133557;27;20403;-70
2024/03/15 12:05:41;;;;;;;1.65;1.00;;;14.10;86.70;;;;;;5133548;27;20139;-71
2024/03/15 12:08:25;;;;;;;1.10;0.88;;;14.00;87.30;;;;;;5133274;27;20050;-70
2024/03/15 12:10:53;;;;;;;2.17;1.00;;;13.90;87.80;;;;;;5116885;27;20078;-70
2024/03/15 12:13:24;;;;;;;1.63;0.68;;;13.80;87.90;;;;;;5115304;28;20047;-71
2024/03/15 12:15:51;;;;;;;3.00;1.08;;;13.70;88.10;;;;;;5131863;28;20119;-72
2024/03/15 12:18:22;;;;;;;0.80;0.80;;;13.70;88.10;;;;;;5132563;27;20031;-71
2024/03/15 12:20:50;;;;;;;0.60;0.60;;;13.70;88.40;;;;;;5133822;28;20035;-72
2024/03/15 12:23:19;;;;;;;1.77;0.90;;;13.90;88.30;;;;;;5132978;28;20138;-72
2024/03/15 12:25:45;;;;;;;1.50;0.90;;;14.00;88.10;;;;;;5133580;28;20047;-72
2024/03/15 12:28:18;;;;;;;1.63;0.90;;;14.20;87.60;;;;;;5133194;28;20058;-72
2024/03/15 12:30:47;;;;;;;0.85;0.80;;;14.20;87.30;;;;;;5132946;28;20046;-72
2024/03/15 12:33:13;;;;;;;2.22;0.90;;;14.30;87.40;;;;;;5130764;28;20043;-73
2024/03/15 12:35:40;;;;;;;1.75;0.80;;;14.30;87.50;;;;;;5133197;28;20479;-72
2024/03/15 12:38:10;;;;;;;2.08;0.93;;;14.40;87.20;;;;;;5113184;28;20096;-72
2024/03/15 12:40:42;;;;;;;1.42;0.85;;;14.60;87.00;;;;;;5133259;28;20530;-72
2024/03/15 12:43:10;;;;;;;1.40;0.85;;;14.70;86.70;;;;;;5042105;28;20515;-73
2024/03/15 12:45:37;;;;;;;3.40;0.75;;;14.80;86.50;;;;;;5059567;28;20044;-73
2024/03/15 12:48:03;;;;;;;1.05;0.60;;;14.90;86.40;;;;;;5042524;28;20443;-73
2024/03/15 12:50:31;;;;;;;1.10;0.90;;;14.80;86.20;;;;;;5059251;28;20492;-72
2024/03/15 12:52:57;;;;;;;0.88;0.80;;;14.90;86.20;;;;;;5059208;28;20189;-72